Time;durP1;ratioP1;P1;durP2;ratioP2;P2;SDS_P1;SDS_P2;PMS_P1;PMS_P2;Temp;Humidity;BMP_temperature;BMP_pressure;BME280_temperature;BME280_humidity;BME280_pressure;Samples;Min_cycle;Max_cycle;Signal;HPM_P1;HPM_P2
2024/01/10 00:01:02;;;;;;;;;;;18.00;60.50;;;;;;7314309;19;9228;-66
2024/01/10 00:03:51;;;;;;;;;;;18.10;60.50;;;;;;7313654;19;9014;-66
2024/01/10 00:06:20;;;;;;;;;;;18.00;60.50;;;;;;7315445;19;9832;-65
2024/01/10 00:08:52;;;;;;;;;;;18.10;60.50;;;;;;7312388;19;9610;-66
2024/01/10 00:11:21;;;;;;;;;;;18.10;60.50;;;;;;7314774;19;9523;-66
2024/01/10 00:14:10;;;;;;;;;;;18.10;60.40;;;;;;7312915;19;9697;-66
2024/01/10 00:16:39;;;;;;;;;;;18.20;60.40;;;;;;7316075;19;9296;-66
2024/01/10 00:19:08;;;;;;;;;;;18.30;60.70;;;;;;7314707;19;9325;-66
2024/01/10 00:21:37;;;;;;;;;;;18.30;60.40;;;;;;7312416;19;9221;-65
2024/01/10 00:24:09;;;;;;;;;;;18.40;60.40;;;;;;7314256;19;9174;-66
2024/01/10 00:26:38;;;;;;;;;;;18.50;60.30;;;;;;7316965;19;9364;-66
2024/01/10 00:29:07;;;;;;;;;;;18.50;60.40;;;;;;7314269;19;9316;-65
2024/01/10 00:31:36;;;;;;;;;;;18.60;60.30;;;;;;7315720;19;9485;-66
2024/01/10 00:34:05;;;;;;;;;;;18.60;60.10;;;;;;7319525;19;9444;-66
2024/01/10 00:36:34;;;;;;;;;;;18.70;60.10;;;;;;7321147;19;9198;-66
2024/01/10 00:39:03;;;;;;;;;;;18.80;60.10;;;;;;7322504;19;9529;-66
2024/01/10 00:41:35;;;;;;;;;;;18.80;60.00;;;;;;7319860;19;9664;-66
2024/01/10 00:44:04;;;;;;;;;;;18.80;60.00;;;;;;7322163;19;9228;-66
2024/01/10 00:46:33;;;;;;;;;;;18.90;60.00;;;;;;7321956;19;9148;-66
2024/01/10 00:49:02;;;;;;;;;;;18.90;59.90;;;;;;7322616;19;9319;-66
2024/01/10 00:51:31;;;;;;;;;;;18.90;59.70;;;;;;7318765;19;9571;-66
2024/01/10 00:54:00;;;;;;;;;;;18.90;59.80;;;;;;7322340;19;10406;-65
2024/01/10 00:56:29;;;;;;;;;;;18.90;59.70;;;;;;7321357;19;9350;-65
2024/01/10 00:59:01;;;;;;;;;;;18.80;59.50;;;;;;7320475;19;10066;-66
2024/01/10 01:01:30;;;;;;;;;;;18.90;59.30;;;;;;7321832;19;9482;-66
2024/01/10 01:03:59;;;;;;;;;;;18.80;59.10;;;;;;7322303;19;9225;-66
2024/01/10 01:06:28;;;;;;;;;;;18.80;59.00;;;;;;7319731;19;9248;-66
2024/01/10 01:09:17;;;;;;;;;;;18.70;59.10;;;;;;7318468;19;9170;-67
2024/01/10 01:11:46;;;;;;;;;;;18.70;59.10;;;;;;7321426;19;9583;-66
2024/01/10 01:14:17;;;;;;;;;;;18.60;59.20;;;;;;7319781;19;9524;-66
2024/01/10 01:16:46;;;;;;;;;;;18.60;59.30;;;;;;7321376;19;9253;-66
2024/01/10 01:19:15;;;;;;;;;;;18.50;59.30;;;;;;7323423;19;9168;-66
2024/01/10 01:21:45;;;;;;;;;;;18.50;59.50;;;;;;7317294;19;9300;-66
2024/01/10 01:24:14;;;;;;;;;;;18.50;59.50;;;;;;7321692;19;9196;-66
2024/01/10 01:26:43;;;;;;;;;;;18.40;59.40;;;;;;7320213;19;9478;-66
2024/01/10 01:29:12;;;;;;;;;;;18.30;59.60;;;;;;7320504;19;9250;-66
2024/01/10 01:31:44;;;;;;;;;;;18.30;59.80;;;;;;7322194;19;9521;-66
2024/01/10 01:34:13;;;;;;;;;;;18.20;59.70;;;;;;7320365;19;9712;-66
2024/01/10 01:36:42;;;;;;;;;;;18.20;59.90;;;;;;7318939;19;9212;-66
2024/01/10 01:39:13;;;;;;;;;;;18.10;59.90;;;;;;7317953;19;9179;-66
2024/01/10 01:41:42;;;;;;;;;;;18.10;60.60;;;;;;7320370;19;9273;-66
2024/01/10 01:44:12;;;;;;;;;;;18.10;60.00;;;;;;7318251;19;9323;-66
2024/01/10 01:46:43;;;;;;;;;;;18.00;59.80;;;;;;7321394;19;10642;-66
2024/01/10 01:49:10;;;;;;;;;;;18.00;59.80;;;;;;7321061;19;9151;-66
2024/01/10 01:51:40;;;;;;;;;;;18.00;59.90;;;;;;7319084;19;9596;-66
2024/01/10 01:54:11;;;;;;;;;;;18.00;59.90;;;;;;7321131;19;9491;-66
2024/01/10 01:56:41;;;;;;;;;;;18.00;59.80;;;;;;7319786;19;9258;-66
2024/01/10 01:59:11;;;;;;;;;;;18.10;59.90;;;;;;7317095;19;9508;-66
2024/01/10 02:01:42;;;;;;;;;;;18.10;60.40;;;;;;7320393;19;10828;-66
2024/01/10 02:04:11;;;;;;;;;;;18.10;59.60;;;;;;7318287;19;9237;-66
2024/01/10 02:06:41;;;;;;;;;;;18.20;59.60;;;;;;7318685;19;10451;-66
2024/01/10 02:09:11;;;;;;;;;;;18.20;59.50;;;;;;7320000;19;9297;-66
2024/01/10 02:11:40;;;;;;;;;;;18.20;59.60;;;;;;7319030;19;9467;-66
2024/01/10 02:14:09;;;;;;;;;;;18.20;59.40;;;;;;7319437;19;9549;-66
2024/01/10 02:16:38;;;;;;;;;;;18.20;59.40;;;;;;7318786;19;9256;-66
2024/01/10 02:19:26;;;;;;;;;;;18.20;59.40;;;;;;7321477;19;9178;-66
2024/01/10 02:22:15;;;;;;;;;;;18.20;59.50;;;;;;7320782;19;9187;-67
2024/01/10 02:24:44;;;;;;;;;;;18.30;59.80;;;;;;7321289;19;9289;-66
2024/01/10 02:27:16;;;;;;;;;;;18.30;59.70;;;;;;7322646;19;9321;-66
2024/01/10 02:29:45;;;;;;;;;;;18.40;59.70;;;;;;7320652;19;9186;-66
2024/01/10 02:32:14;;;;;;;;;;;18.40;59.60;;;;;;7321413;19;9305;-66
2024/01/10 02:34:42;;;;;;;;;;;18.50;59.40;;;;;;7317750;19;9642;-67
2024/01/10 02:37:11;;;;;;;;;;;18.50;59.30;;;;;;7320853;19;9233;-66
2024/01/10 02:39:40;;;;;;;;;;;18.60;59.30;;;;;;7316988;19;9488;-67
2024/01/10 02:42:10;;;;;;;;;;;18.60;59.30;;;;;;7320629;19;9505;-66
2024/01/10 02:44:41;;;;;;;;;;;18.60;59.30;;;;;;7315570;19;9490;-66
2024/01/10 02:47:11;;;;;;;;;;;18.70;59.30;;;;;;7318477;19;9562;-66
2024/01/10 02:49:40;;;;;;;;;;;18.80;59.20;;;;;;7317163;19;10336;-66
2024/01/10 02:52:09;;;;;;;;;;;18.80;59.20;;;;;;7317951;19;9644;-66
2024/01/10 02:54:38;;;;;;;;;;;18.80;59.20;;;;;;7317795;19;9339;-66
2024/01/10 02:57:07;;;;;;;;;;;18.90;59.10;;;;;;7317591;19;9579;-66
2024/01/10 02:59:35;;;;;;;;;;;18.90;59.70;;;;;;7315500;19;9513;-66
2024/01/10 03:02:07;;;;;;;;;;;18.90;59.10;;;;;;7317642;19;10513;-67
2024/01/10 03:04:56;;;;;;;;;;;18.90;59.00;;;;;;7318655;19;9406;-67
2024/01/10 03:07:25;;;;;;;;;;;18.90;58.70;;;;;;7316814;19;9332;-66
2024/01/10 03:09:54;;;;;;;;;;;18.90;58.80;;;;;;7317779;19;9484;-66
2024/01/10 03:12:23;;;;;;;;;;;18.90;59.70;;;;;;7317520;19;10414;-66
2024/01/10 03:14:51;;;;;;;;;;;18.90;58.70;;;;;;7313768;19;9537;-66
2024/01/10 03:17:23;;;;;;;;;;;18.80;58.70;;;;;;7319352;19;9210;-66
2024/01/10 03:19:52;;;;;;;;;;;18.90;58.40;;;;;;7316923;19;9414;-66
2024/01/10 03:22:21;;;;;;;;;;;18.80;58.30;;;;;;7318560;19;9254;-66
2024/01/10 03:24:50;;;;;;;;;;;18.80;58.30;;;;;;7317172;19;9187;-66
2024/01/10 03:27:18;;;;;;;;;;;18.70;58.30;;;;;;7319035;19;9514;-66
2024/01/10 03:29:47;;;;;;;;;;;18.70;58.30;;;;;;7314808;19;9422;-66
2024/01/10 03:32:16;;;;;;;;;;;18.60;58.30;;;;;;7318706;19;9472;-66
2024/01/10 03:34:51;;;;;;;;;;;18.60;58.40;;;;;;7315704;19;10109;-67
2024/01/10 03:37:20;;;;;;;;;;;18.50;58.50;;;;;;7318062;19;9122;-64
2024/01/10 03:39:49;;;;;;;;;;;18.50;58.50;;;;;;7313995;19;9248;-64
2024/01/10 03:42:38;;;;;;;;;;;18.40;58.60;;;;;;7315487;19;9274;-64
2024/01/10 03:45:08;;;;;;;;;;;18.30;58.90;;;;;;7317516;19;9624;-64
2024/01/10 03:47:37;;;;;;;;;;;18.30;58.80;;;;;;7316862;19;9422;-63
2024/01/10 03:50:09;;;;;;;;;;;18.30;59.00;;;;;;7317296;19;9264;-64
2024/01/10 03:52:38;;;;;;;;;;;18.20;59.10;;;;;;7317060;19;11025;-64
2024/01/10 03:55:07;;;;;;;;;;;18.20;59.00;;;;;;7317377;19;9372;-64
2024/01/10 03:57:36;;;;;;;;;;;18.20;58.90;;;;;;7316401;19;9495;-64
2024/01/10 04:00:06;;;;;;;;;;;18.10;59.00;;;;;;7312824;19;9353;-64
2024/01/10 04:02:35;;;;;;;;;;;18.10;59.00;;;;;;7315705;19;9470;-64
2024/01/10 04:05:04;;;;;;;;;;;18.10;58.90;;;;;;7313239;19;9606;-64
2024/01/10 04:07:56;;;;;;;;;;;18.10;59.00;;;;;;7314137;19;10532;-63
2024/01/10 04:10:26;;;;;;;;;;;18.00;58.90;;;;;;7321905;19;9607;-66
2024/01/10 04:12:55;;;;;;;;;;;18.10;59.10;;;;;;7323271;19;9533;-66
2024/01/10 04:15:24;;;;;;;;;;;18.10;59.00;;;;;;7322673;19;9246;-66
2024/01/10 04:17:53;;;;;;;;;;;18.00;58.90;;;;;;7323026;19;9237;-66
2024/01/10 04:20:21;;;;;;;;;;;18.10;58.90;;;;;;7322574;19;9298;-66
2024/01/10 04:22:50;;;;;;;;;;;18.20;59.00;;;;;;7319935;19;9705;-66
2024/01/10 04:25:22;;;;;;;;;;;18.20;59.00;;;;;;7322079;19;9533;-66
2024/01/10 04:27:51;;;;;;;;;;;18.20;59.20;;;;;;7322538;19;9200;-66
2024/01/10 04:30:20;;;;;;;;;;;18.30;59.20;;;;;;7323830;19;9208;-66
2024/01/10 04:32:49;;;;;;;;;;;18.30;59.20;;;;;;7321055;19;9233;-66
2024/01/10 04:35:18;;;;;;;;;;;18.40;59.10;;;;;;7323190;19;9554;-66
2024/01/10 04:37:47;;;;;;;;;;;18.50;59.00;;;;;;7320598;19;9244;-66
2024/01/10 04:40:16;;;;;;;;;;;18.50;58.90;;;;;;7320312;19;9234;-66
2024/01/10 04:42:48;;;;;;;;;;;18.60;58.90;;;;;;7321478;19;9088;-66
2024/01/10 04:45:17;;;;;;;;;;;18.60;58.80;;;;;;7323371;19;9323;-66
2024/01/10 04:47:47;;;;;;;;;;;18.60;58.60;;;;;;7321817;19;9401;-66
2024/01/10 04:50:16;;;;;;;;;;;18.70;58.70;;;;;;7322805;19;9334;-66
2024/01/10 04:52:45;;;;;;;;;;;18.70;58.70;;;;;;7320963;19;9742;-66
2024/01/10 04:55:34;;;;;;;;;;;18.70;58.80;;;;;;7319468;19;9450;-66
2024/01/10 04:58:06;;;;;;;;;;;18.70;58.60;;;;;;7322703;19;9236;-66
2024/01/10 05:00:34;;;;;;;;;;;18.70;58.50;;;;;;7320998;19;9548;-66
2024/01/10 05:03:23;;;;;;;;;;;18.70;58.50;;;;;;7320055;19;9454;-66
2024/01/10 05:05:52;;;;;;;;;;;18.70;58.40;;;;;;7319163;19;9475;-66
2024/01/10 05:08:21;;;;;;;;;;;18.70;58.30;;;;;;7319561;19;9500;-67
2024/01/10 05:10:50;;;;;;;;;;;18.80;58.40;;;;;;7321927;19;9658;-66
2024/01/10 05:13:22;;;;;;;;;;;18.80;58.40;;;;;;7321407;19;9461;-66
2024/01/10 05:15:54;;;;;;;;;;;18.70;58.30;;;;;;7319709;19;9472;-66
2024/01/10 05:18:23;;;;;;;;;;;18.80;58.40;;;;;;7321492;19;9489;-66
2024/01/10 05:20:52;;;;;;;;;;;18.80;58.40;;;;;;7320928;19;9200;-67
2024/01/10 05:23:21;;;;;;;;;;;18.80;58.30;;;;;;7318528;19;9245;-67
2024/01/10 05:25:50;;;;;;;;;;;18.90;59.10;;;;;;7320612;19;9432;-66
2024/01/10 05:28:41;;;;;;;;;;;18.90;58.40;;;;;;7319726;19;9379;-66
2024/01/10 05:31:30;;;;;;;;;;;18.90;58.40;;;;;;7317382;19;9236;-66
2024/01/10 05:33:59;;;;;;;;;;;18.90;58.20;;;;;;7320778;19;10229;-66
2024/01/10 05:36:28;;;;;;;;;;;18.90;58.20;;;;;;7318977;19;9228;-66
2024/01/10 05:38:57;;;;;;;;;;;18.90;58.10;;;;;;7317750;19;9489;-66
2024/01/10 05:41:26;;;;;;;;;;;18.90;58.00;;;;;;7319212;19;9704;-66
2024/01/10 05:43:58;;;;;;;;;;;18.80;57.80;;;;;;7320499;19;9385;-66
2024/01/10 05:46:28;;;;;;;;;;;18.80;58.40;;;;;;7320237;19;9467;-66
2024/01/10 05:48:56;;;;;;;;;;;18.80;58.40;;;;;;7319898;19;9490;-66
2024/01/10 05:51:25;;;;;;;;;;;18.70;57.60;;;;;;7319190;19;9240;-66
2024/01/10 05:53:54;;;;;;;;;;;18.70;57.70;;;;;;7318442;19;9121;-66
2024/01/10 05:56:23;;;;;;;;;;;18.60;57.70;;;;;;7321623;19;9479;-67
2024/01/10 05:58:52;;;;;;;;;;;18.60;58.60;;;;;;7319522;19;9360;-66
2024/01/10 06:01:24;;;;;;;;;;;18.50;57.90;;;;;;7319276;19;10382;-66
2024/01/10 06:03:53;;;;;;;;;;;18.40;58.00;;;;;;7318898;19;9609;-66
2024/01/10 06:06:22;;;;;;;;;;;18.40;58.10;;;;;;7318730;19;9229;-66
2024/01/10 06:08:50;;;;;;;;;;;18.30;58.20;;;;;;7315230;19;9431;-66
2024/01/10 06:11:22;;;;;;;;;;;18.30;58.90;;;;;;7319336;19;9260;-66
2024/01/10 06:13:51;;;;;;;;;;;18.20;58.20;;;;;;7318096;19;9204;-67
2024/01/10 06:16:20;;;;;;;;;;;18.20;58.30;;;;;;7320330;19;9261;-66
2024/01/10 06:18:51;;;;;;;;;;;18.20;58.40;;;;;;7320571;19;9268;-67
2024/01/10 06:21:20;;;;;;;;;;;18.10;58.30;;;;;;7316606;19;9481;-66
2024/01/10 06:23:49;;;;;;;;;;;18.10;59.10;;;;;;7318479;19;9561;-66
2024/01/10 06:26:18;;;;;;;;;;;18.10;58.40;;;;;;7319321;19;9953;-67
2024/01/10 06:28:47;;;;;;;;;;;18.10;58.30;;;;;;7317907;19;9320;-66
2024/01/10 06:31:16;;;;;;;;;;;18.10;58.20;;;;;;7315690;19;9754;-67
2024/01/10 06:33:45;;;;;;;;;;;18.00;58.20;;;;;;7320100;19;9606;-66
2024/01/10 06:36:16;;;;;;;;;;;18.00;58.30;;;;;;7313602;19;9550;-66
2024/01/10 06:38:45;;;;;;;;;;;18.00;58.40;;;;;;7320516;19;9476;-66
2024/01/10 06:41:15;;;;;;;;;;;18.00;58.40;;;;;;7310560;19;9623;-66
2024/01/10 06:43:44;;;;;;;;;;;18.00;58.30;;;;;;7318418;19;10532;-66
2024/01/10 06:46:13;;;;;;;;;;;18.10;58.40;;;;;;7316534;19;9514;-67
2024/01/10 06:48:42;;;;;;;;;;;18.10;58.30;;;;;;7320069;19;9530;-67
2024/01/10 06:51:15;;;;;;;;;;;18.20;58.50;;;;;;7313617;19;10015;-66
2024/01/10 06:53:44;;;;;;;;;;;18.20;58.50;;;;;;7321606;19;9270;-67
2024/01/10 06:56:13;;;;;;;;;;;18.30;58.50;;;;;;7319067;19;9359;-66
2024/01/10 06:58:44;;;;;;;;;;;18.30;58.60;;;;;;7318845;19;9263;-66
2024/01/10 07:01:16;;;;;;;;;;;18.40;58.80;;;;;;7316225;19;9482;-66
2024/01/10 07:03:45;;;;;;;;;;;18.40;58.50;;;;;;7317522;19;10662;-66
2024/01/10 07:06:17;;;;;;;;;;;18.50;58.30;;;;;;7316923;19;9178;-66
2024/01/10 07:08:47;;;;;;;;;;;18.60;58.20;;;;;;7314903;19;9208;-66
2024/01/10 07:11:16;;;;;;;;;;;18.60;58.20;;;;;;7312664;19;9148;-73
2024/01/10 07:13:45;;;;;;;;;;;18.60;58.00;;;;;;7315027;19;9519;-73
2024/01/10 07:16:18;;;;;;;;;;;18.70;58.30;;;;;;7317413;19;9477;-72
2024/01/10 07:18:50;;;;;;;;;;;18.70;58.40;;;;;;7317575;19;11302;-70
2024/01/10 07:21:21;;;;;;;;;;;18.80;58.40;;;;;;7317466;19;9186;-73
2024/01/10 07:23:50;;;;;;;;;;;18.80;58.30;;;;;;7310368;19;9266;-65
2024/01/10 07:26:19;;;;;;;;;;;18.90;58.20;;;;;;7313639;19;9176;-65
2024/01/10 07:28:48;;;;;;;;;;;19.00;58.20;;;;;;7317488;19;9177;-66
2024/01/10 07:31:17;;;;;;;;;;;19.00;58.20;;;;;;7315491;19;9407;-66
2024/01/10 07:33:46;;;;;;;;;;;19.00;58.30;;;;;;7311643;19;9707;-65
2024/01/10 07:36:14;;;;;;;;;;;19.00;58.00;;;;;;7316507;19;9502;-65
2024/01/10 07:38:46;;;;;;;;;;;19.00;58.20;;;;;;7315821;19;9619;-65
2024/01/10 07:41:15;;;;;;;;;;;19.00;58.20;;;;;;7312680;19;9453;-66
2024/01/10 07:43:44;;;;;;;;;;;18.90;58.00;;;;;;7323554;19;10486;-66
2024/01/10 07:46:13;;;;;;;;;;;18.90;58.00;;;;;;7325667;19;10349;-65
2024/01/10 07:48:43;;;;;;;;;;;18.90;58.10;;;;;;7324155;19;9588;-66
2024/01/10 07:51:13;;;;;;;;;;;18.80;58.00;;;;;;7324369;19;9156;-66
2024/01/10 07:53:41;;;;;;;;;;;18.80;58.10;;;;;;7327864;19;9460;-66
2024/01/10 07:56:14;;;;;;;;;;;18.70;58.10;;;;;;7323377;19;9181;-66
2024/01/10 07:58:43;;;;;;;;;;;18.70;58.20;;;;;;7320743;19;9219;-66
2024/01/10 08:01:12;;;;;;;;;;;18.60;58.20;;;;;;7320791;19;9351;-66
2024/01/10 08:03:42;;;;;;;;;;;18.60;58.30;;;;;;7318612;19;9643;-65
2024/01/10 08:06:12;;;;;;;;;;;18.50;58.40;;;;;;7318007;19;9331;-66
2024/01/10 08:08:41;;;;;;;;;;;18.50;58.50;;;;;;7318710;19;9273;-65
2024/01/10 08:11:12;;;;;;;;;;;18.40;58.60;;;;;;7321315;19;9392;-66
2024/01/10 08:13:41;;;;;;;;;;;18.40;58.80;;;;;;7318033;19;9252;-65
2024/01/10 08:16:11;;;;;;;;;;;18.30;58.80;;;;;;7319385;19;10660;-66
2024/01/10 08:18:40;;;;;;;;;;;18.30;58.90;;;;;;7318540;19;9127;-65
2024/01/10 08:21:08;;;;;;;;;;;18.20;59.10;;;;;;7320745;19;9248;-66
2024/01/10 08:23:37;;;;;;;;;;;18.20;59.90;;;;;;7322779;19;9442;-65
2024/01/10 08:26:11;;;;;;;;;;;18.10;59.10;;;;;;7318848;19;9193;-66
2024/01/10 08:28:43;;;;;;;;;;;18.10;59.20;;;;;;7319493;19;9449;-66
2024/01/10 08:31:12;;;;;;;;;;;18.10;59.20;;;;;;7318433;19;9838;-66
2024/01/10 08:33:41;;;;;;;;;;;18.00;59.20;;;;;;7320138;19;9280;-65
2024/01/10 08:36:12;;;;;;;;;;;18.00;59.20;;;;;;7319156;19;9557;-66
2024/01/10 08:38:41;;;;;;;;;;;18.00;59.30;;;;;;7323287;19;9546;-65
2024/01/10 08:41:11;;;;;;;;;;;18.00;59.30;;;;;;7318426;19;9514;-66
2024/01/10 08:43:43;;;;;;;;;;;18.00;59.10;;;;;;7321805;19;9333;-65
2024/01/10 08:46:12;;;;;;;;;;;18.10;59.20;;;;;;7317899;19;9242;-66
2024/01/10 08:49:01;;;;;;;;;;;18.00;59.10;;;;;;7319059;19;9505;-66
2024/01/10 08:51:30;;;;;;;;;;;18.10;59.20;;;;;;7319582;19;9457;-66
2024/01/10 08:53:59;;;;;;;;;;;18.10;59.20;;;;;;7318978;19;9233;-66
2024/01/10 08:56:28;;;;;;;;;;;18.10;59.20;;;;;;7321151;19;9407;-66
2024/01/10 08:59:01;;;;;;;;;;;18.10;59.20;;;;;;7321668;19;9317;-66
2024/01/10 09:01:30;;;;;;;;;;;18.10;59.90;;;;;;7318128;19;9487;-65
2024/01/10 09:03:58;;;;;;;;;;;18.10;59.20;;;;;;7315630;19;11220;-66
2024/01/10 09:06:27;;;;;;;;;;;18.20;59.30;;;;;;7320288;19;9400;-66
2024/01/10 09:08:56;;;;;;;;;;;18.20;59.30;;;;;;7320819;19;11146;-65
2024/01/10 09:11:25;;;;;;;;;;;18.30;59.30;;;;;;7320914;19;9261;-66
2024/01/10 09:13:54;;;;;;;;;;;18.30;59.20;;;;;;7321083;19;9270;-66
2024/01/10 09:16:26;;;;;;;;;;;18.40;59.20;;;;;;7320138;19;9391;-65
2024/01/10 09:18:57;;;;;;;;;;;18.50;59.10;;;;;;7321449;19;10217;-65
2024/01/10 09:21:27;;;;;;;;;;;18.60;58.90;;;;;;7319398;19;9205;-66
2024/01/10 09:23:56;;;;;;;;;;;18.60;58.80;;;;;;7321343;19;9194;-66
2024/01/10 09:26:25;;;;;;;;;;;18.70;58.90;;;;;;7320596;19;9478;-65
2024/01/10 09:28:54;;;;;;;;;;;18.80;58.90;;;;;;7321830;19;9540;-65
2024/01/10 09:31:26;;;;;;;;;;;18.80;59.50;;;;;;7319504;19;9251;-66
2024/01/10 09:33:55;;;;;;;;;;;18.90;58.80;;;;;;7322218;19;9763;-65
2024/01/10 09:36:23;;;;;;;;;;;18.90;58.60;;;;;;7314728;19;9665;-66
2024/01/10 09:38:53;;;;;;;;;;;18.90;58.70;;;;;;7318540;19;10328;-67
2024/01/10 09:41:22;;;;;;;;;;;19.00;58.70;;;;;;7318724;19;9067;-66
2024/01/10 09:43:52;;;;;;;;;;;19.00;58.60;;;;;;7322364;19;9083;-66
2024/01/10 09:46:22;;;;;;;;;;;19.00;58.50;;;;;;7319890;19;9266;-66
2024/01/10 09:48:54;;;;;;;;;;;19.00;58.50;;;;;;7320861;19;9403;-65
2024/01/10 09:51:24;;;;;;;;;;;19.10;58.50;;;;;;7321939;19;9275;-66
2024/01/10 09:53:57;;;;;;;;;;;19.10;58.40;;;;;;7319842;19;9286;-66
2024/01/10 09:56:26;;;;;;;;;;;19.10;58.30;;;;;;7319832;19;9210;-66
2024/01/10 09:58:58;;;;;;;;;;;19.10;58.40;;;;;;7320019;19;9383;-66
2024/01/10 10:01:28;;;;;;;;;;;19.10;58.40;;;;;;7321140;19;9552;-66
2024/01/10 10:04:00;;;;;;;;;;;19.10;58.30;;;;;;7317059;19;11142;-66
2024/01/10 10:06:29;;;;;;;;;;;19.00;58.30;;;;;;7319692;19;9238;-66
2024/01/10 10:08:57;;;;;;;;;;;19.00;58.50;;;;;;7319128;19;10945;-66
2024/01/10 10:11:27;;;;;;;;;;;18.90;58.50;;;;;;7319462;19;10655;-65
2024/01/10 10:13:56;;;;;;;;;;;18.90;58.70;;;;;;7320032;19;9479;-66
2024/01/10 10:16:27;;;;;;;;;;;18.90;58.60;;;;;;7318894;19;9126;-66
2024/01/10 10:19:00;;;;;;;;;;;18.80;58.90;;;;;;7319276;19;9225;-65
2024/01/10 10:21:30;;;;;;;;;;;18.80;59.00;;;;;;7318061;19;9450;-66
2024/01/10 10:24:03;;;;;;;;;;;18.80;59.30;;;;;;7320108;19;9241;-66
2024/01/10 10:26:36;;;;;;;;;;;18.80;59.50;;;;;;7318899;19;9165;-65
2024/01/10 10:29:05;;;;;;;;;;;18.70;59.40;;;;;;7320899;19;11218;-65
2024/01/10 10:31:34;;;;;;;;;;;18.60;59.40;;;;;;7316918;19;9237;-66
2024/01/10 10:34:06;;;;;;;;;;;18.70;59.50;;;;;;7317002;19;9422;-65
2024/01/10 10:36:35;;;;;;;;;;;18.60;59.50;;;;;;7318203;19;9225;-65
2024/01/10 10:39:06;;;;;;;;;;;18.60;59.60;;;;;;7319499;19;9345;-65
2024/01/10 10:41:37;;;;;;;;;;;18.50;59.60;;;;;;7315841;19;9631;-65
2024/01/10 10:44:12;;;;;;;;;;;18.50;60.30;;;;;;7319786;19;9264;-66
2024/01/10 10:46:45;;;;;;;;;;;18.50;59.80;;;;;;7317297;19;9643;-66
2024/01/10 10:49:20;;;;;;;;;;;18.50;59.70;;;;;;7318018;19;9286;-65
2024/01/10 10:51:51;;;;;;;;;;;18.50;59.90;;;;;;7319333;19;9273;-66
2024/01/10 10:54:22;;;;;;;;;;;18.40;60.00;;;;;;7318425;19;9441;-65
2024/01/10 10:56:55;;;;;;;;;;;18.40;60.10;;;;;;7318480;19;9379;-65
2024/01/10 10:59:28;;;;;;;;;;;18.40;60.00;;;;;;7317194;19;9321;-66
2024/01/10 11:01:59;;;;;;;;;;;18.40;60.10;;;;;;7317249;19;9727;-66
2024/01/10 11:04:31;;;;;;;;;;;18.40;60.00;;;;;;7316253;19;9445;-66
2024/01/10 11:07:21;;;;;;;;;;;18.40;60.10;;;;;;7315241;19;9518;-65
2024/01/10 11:09:53;;;;;;;;;;;18.40;60.00;;;;;;7317924;19;9249;-65
2024/01/10 11:12:40;;;;;;;;;;;18.40;60.10;;;;;;7316803;19;9624;-65
2024/01/10 11:15:27;;;;;;;;;;;18.50;60.20;;;;;;7317169;19;10381;-66
2024/01/10 11:18:11;;;;;;;;;;;18.50;60.00;;;;;;7314461;19;10833;-65
2024/01/10 11:21:03;;;;;;;;;;;18.60;60.10;;;;;;7317552;19;9181;-65
2024/01/10 11:23:44;;;;;;;;;;;18.60;60.00;;;;;;7317505;19;9245;-66
2024/01/10 11:26:13;;;;;;;;;;;18.60;60.00;;;;;;7316671;19;9233;-66
2024/01/10 11:28:43;;;;;;;;;;;18.60;59.90;;;;;;7318001;19;9254;-66
2024/01/10 11:31:13;;;;;;;;;;;18.70;60.00;;;;;;7316129;19;11136;-66
2024/01/10 11:33:44;;;;;;;;;;;18.70;59.90;;;;;;7318141;19;9266;-66
2024/01/10 11:36:17;;;;;;;;;;;18.80;60.00;;;;;;7316550;19;9202;-65
2024/01/10 11:38:53;;;;;;;;;;;18.80;59.90;;;;;;7316767;19;9398;-66
2024/01/10 11:41:27;;;;;;;;;;;18.90;59.90;;;;;;7313824;19;9573;-72
2024/01/10 11:44:25;;;;;;;;;;;18.90;59.80;;;;;;7318531;19;9240;-71
2024/01/10 11:46:56;;;;;;;;;;;19.00;59.80;;;;;;7317261;19;9554;-72
2024/01/10 11:49:27;;;;;;;;;;;19.10;59.80;;;;;;7315401;19;9445;-71
2024/01/10 11:52:01;;;;;;;;;;;19.10;59.80;;;;;;7316630;19;9185;-72
2024/01/10 11:54:41;;;;;;;;;;;19.20;59.80;;;;;;7314214;19;9140;-72
2024/01/10 11:57:14;;;;;;;;;;;19.20;59.70;;;;;;7317770;19;9279;-73
2024/01/10 11:59:45;;;;;;;;;;;19.20;59.60;;;;;;7317541;19;9226;-74
2024/01/10 12:02:16;;;;;;;;;;;19.20;59.60;;;;;;7317024;19;9474;-74
2024/01/10 12:04:45;;;;;;;;;;;19.30;59.70;;;;;;7312181;19;9252;-66
2024/01/10 12:07:18;;;;;;;;;;;19.30;59.80;;;;;;7316640;19;9564;-74
2024/01/10 12:09:47;;;;;;;;;;;19.30;59.70;;;;;;7316702;19;9154;-76
2024/01/10 12:12:16;;;;;;;;;;;19.30;59.80;;;;;;7314866;19;9229;-74
2024/01/10 12:14:46;;;;;;;;;;;19.30;59.80;;;;;;7313912;19;10377;-72
2024/01/10 12:17:15;;;;;;;;;;;19.30;59.80;;;;;;7313964;19;9384;-72
2024/01/10 12:19:44;;;;;;;;;;;19.30;59.80;;;;;;7316117;19;9749;-76
2024/01/10 12:22:16;;;;;;;;;;;19.30;59.90;;;;;;7315912;19;10599;-78
2024/01/10 12:24:48;;;;;;;;;;;19.30;60.00;;;;;;7311799;19;9316;-66
2024/01/10 12:27:19;;;;;;;;;;;19.30;59.90;;;;;;7313080;19;9438;-66
2024/01/10 12:29:51;;;;;;;;;;;19.30;59.90;;;;;;7317996;19;9236;-67
2024/01/10 12:32:22;;;;;;;;;;;19.30;60.00;;;;;;7320875;19;9259;-66
2024/01/10 12:34:51;;;;;;;;;;;19.30;60.00;;;;;;7320108;19;9250;-66
2024/01/10 12:37:23;;;;;;;;;;;19.30;60.00;;;;;;7320395;19;9221;-66
2024/01/10 12:39:52;;;;;;;;;;;19.30;60.20;;;;;;7316910;19;9245;-66
2024/01/10 12:42:41;;;;;;;;;;;19.30;60.20;;;;;;7318810;19;9589;-66
2024/01/10 12:45:23;;;;;;;;;;;19.30;60.30;;;;;;7321271;19;10128;-66
2024/01/10 12:47:53;;;;;;;;;;;19.30;60.20;;;;;;7321399;19;9312;-66
2024/01/10 12:50:43;;;;;;;;;;;19.30;60.30;;;;;;7319108;19;9303;-66
2024/01/10 12:53:15;;;;;;;;;;;19.30;60.20;;;;;;7318133;19;9487;-66
2024/01/10 12:55:44;;;;;;;;;;;19.30;60.30;;;;;;7321177;19;9217;-66
2024/01/10 12:58:13;;;;;;;;;;;19.30;60.40;;;;;;7321957;19;9469;-66
2024/01/10 13:00:42;;;;;;;;;;;19.30;60.30;;;;;;7321615;19;9522;-66
2024/01/10 13:03:10;;;;;;;;;;;19.30;60.40;;;;;;7319836;19;9763;-66
2024/01/10 13:05:40;;;;;;;;;;;19.30;60.40;;;;;;7319777;19;9746;-66
2024/01/10 13:08:10;;;;;;;;;;;19.30;60.30;;;;;;7322998;19;9252;-66
2024/01/10 13:11:04;;;;;;;;;;;19.20;60.40;;;;;;7319506;19;10109;-66
2024/01/10 13:13:33;;;;;;;;;;;19.20;60.40;;;;;;7322968;19;9237;-66
2024/01/10 13:16:02;;;;;;;;;;;19.20;60.30;;;;;;7323163;19;9270;-66
2024/01/10 13:18:31;;;;;;;;;;;19.10;60.40;;;;;;7323045;19;9481;-66
2024/01/10 13:21:00;;;;;;;;;;;19.10;60.40;;;;;;7324134;19;10844;-66
2024/01/10 13:23:29;;;;;;;;;;;19.10;60.40;;;;;;7319319;19;9238;-66
2024/01/10 13:26:01;;;;;;;;;;;19.10;60.50;;;;;;7321973;19;9458;-66
2024/01/10 13:28:30;;;;;;;;;;;19.10;60.50;;;;;;7320590;19;9521;-66
2024/01/10 13:30:59;;;;;;;;;;;19.00;60.50;;;;;;7320646;19;9277;-66
2024/01/10 13:33:29;;;;;;;;;;;19.00;60.50;;;;;;7318598;19;10696;-66
2024/01/10 13:35:58;;;;;;;;;;;18.90;60.50;;;;;;7318289;19;9239;-66
2024/01/10 13:38:27;;;;;;;;;;;18.90;60.50;;;;;;7318158;19;9264;-66
2024/01/10 13:40:56;;;;;;;;;;;18.90;60.70;;;;;;7319907;19;9238;-66
2024/01/10 13:43:48;;;;;;;;;;;18.80;60.60;;;;;;7319987;19;9573;-66
2024/01/10 13:46:17;;;;;;;;;;;18.80;60.60;;;;;;7319431;19;11147;-66
2024/01/10 13:48:46;;;;;;;;;;;18.80;60.70;;;;;;7321434;19;9424;-66
2024/01/10 13:51:16;;;;;;;;;;;18.80;60.80;;;;;;7321009;19;10286;-67
2024/01/10 13:53:45;;;;;;;;;;;18.80;60.80;;;;;;7315799;19;9470;-66
2024/01/10 13:56:14;;;;;;;;;;;18.70;60.70;;;;;;7320881;19;9824;-66
2024/01/10 13:59:05;;;;;;;;;;;18.70;60.80;;;;;;7319052;19;9190;-66
2024/01/10 14:01:34;;;;;;;;;;;18.70;60.80;;;;;;7319307;19;9256;-66
2024/01/10 14:04:03;;;;;;;;;;;18.70;60.80;;;;;;7312843;19;9236;-66
2024/01/10 14:06:32;;;;;;;;;;;18.70;60.80;;;;;;7319341;19;9111;-66
2024/01/10 14:09:02;;;;;;;;;;;18.70;60.80;;;;;;7319066;19;9228;-66
2024/01/10 14:11:33;;;;;;;;;;;18.70;60.70;;;;;;7316757;19;10677;-66
2024/01/10 14:14:01;;;;;;;;;;;18.70;60.80;;;;;;7317926;19;9727;-66
2024/01/10 14:16:33;;;;;;;;;;;18.70;60.80;;;;;;7318215;19;9591;-66
2024/01/10 14:19:02;;;;;;;;;;;18.70;60.60;;;;;;7319990;19;9488;-66
2024/01/10 14:21:51;;;;;;;;;;;18.70;60.70;;;;;;7317191;19;9235;-66
2024/01/10 14:24:20;;;;;;;;;;;18.70;60.70;;;;;;7320673;19;10830;-66
2024/01/10 14:26:48;;;;;;;;;;;18.70;60.60;;;;;;7316848;19;9537;-66
2024/01/10 14:29:17;;;;;;;;;;;18.70;60.70;;;;;;7318442;19;9189;-66
2024/01/10 14:31:49;;;;;;;;;;;18.80;60.60;;;;;;7317426;19;9328;-67
2024/01/10 14:34:18;;;;;;;;;;;18.70;60.60;;;;;;7318169;19;10300;-66
2024/01/10 14:36:47;;;;;;;;;;;18.70;60.60;;;;;;7318087;19;11054;-66
2024/01/10 14:39:16;;;;;;;;;;;18.80;60.60;;;;;;7317498;19;9593;-66
2024/01/10 14:42:08;;;;;;;;;;;18.80;60.60;;;;;;7312085;19;9312;-66
2024/01/10 14:44:37;;;;;;;;;;;18.80;60.50;;;;;;7317728;19;9746;-66
2024/01/10 14:47:09;;;;;;;;;;;18.80;60.50;;;;;;7318763;19;9461;-66
2024/01/10 14:49:38;;;;;;;;;;;18.70;60.60;;;;;;7317457;19;9177;-66
2024/01/10 14:52:08;;;;;;;;;;;18.80;60.70;;;;;;7315473;19;10861;-66